createdAt,value
2022-09-15T00:02:25.227Z,95.48
2022-09-15T00:05:00.890Z,95.47
2022-09-15T00:07:40.541Z,95.16
2022-09-15T00:10:14.237Z,95.27
2022-09-15T00:12:49.508Z,95.66
2022-09-15T00:15:25.821Z,95.68
2022-09-15T00:18:09.129Z,95.71
2022-09-15T00:20:45.653Z,95.58
2022-09-15T00:23:28.900Z,95.54
2022-09-15T00:26:12.828Z,95.33
2022-09-15T00:28:45.418Z,95.50
2022-09-15T00:31:20.035Z,95.59
2022-09-15T00:33:57.220Z,95.64
2022-09-15T00:36:29.771Z,95.79
2022-09-15T00:39:02.187Z,95.96
2022-09-15T00:41:39.560Z,96.13
2022-09-15T00:44:52.546Z,96.19
2022-09-15T00:47:28.453Z,96.35
2022-09-15T00:50:07.927Z,96.37
2022-09-15T00:52:45.496Z,96.88
2022-09-15T00:55:23.663Z,96.59
2022-09-15T00:58:00.617Z,96.66
2022-09-15T01:00:32.912Z,96.71
2022-09-15T01:03:05.473Z,96.38
2022-09-15T01:05:44.936Z,96.44
2022-09-15T01:08:27.745Z,96.65
2022-09-15T01:11:00.601Z,96.74
2022-09-15T01:13:32.934Z,96.82
2022-09-15T01:16:14.561Z,96.91
2022-09-15T01:18:55.434Z,96.53
2022-09-15T01:21:42.143Z,96.71
2022-09-15T01:24:43.602Z,96.82
2022-09-15T01:27:41.635Z,96.95
2022-09-15T01:30:18.522Z,96.93
2022-09-15T01:33:14.375Z,96.69
2022-09-15T01:35:56.969Z,96.87
2022-09-15T01:38:37.404Z,96.79
2022-09-15T01:41:18.342Z,96.94
2022-09-15T01:44:06.448Z,96.81
2022-09-15T01:46:47.774Z,97.15
2022-09-15T01:49:24.312Z,96.95
2022-09-15T01:51:59.671Z,97.07
2022-09-15T01:54:36.356Z,97.23
2022-09-15T01:57:08.671Z,97.36
2022-09-15T01:59:40.995Z,97.51
2022-09-15T02:02:21.191Z,97.28
2022-09-15T02:05:07.523Z,96.74
2022-09-15T02:07:52.210Z,96.64
2022-09-15T02:10:33.762Z,96.87
2022-09-15T02:13:18.050Z,97.03
2022-09-15T02:15:53.591Z,97.28
2022-09-15T02:18:39.368Z,97.42
2022-09-15T02:21:19.646Z,97.05
2022-09-15T02:23:56.429Z,97.04
2022-09-15T02:26:32.900Z,96.68
2022-09-15T02:29:10.365Z,96.61
2022-09-15T02:31:45.155Z,96.75
2022-09-15T02:34:23.503Z,96.84
2022-09-15T02:36:59.802Z,96.84
2022-09-15T02:39:44.648Z,96.90
2022-09-15T02:42:27.053Z,96.81
2022-09-15T02:45:02.865Z,96.77
2022-09-15T02:47:37.857Z,96.94
2022-09-15T02:50:31.041Z,97.00
2022-09-15T02:53:06.042Z,96.87
2022-09-15T02:55:38.431Z,97.02
2022-09-15T02:58:13.063Z,96.47
2022-09-15T03:00:47.975Z,96.46
2022-09-15T03:03:22.137Z,96.66
2022-09-15T03:05:54.533Z,96.78
2022-09-15T03:08:35.826Z,97.12
2022-09-15T03:11:16.114Z,97.38
2022-09-15T03:13:54.555Z,97.64
2022-09-15T03:16:47.601Z,97.77
2022-09-15T03:19:19.783Z,97.91
2022-09-15T03:22:00.808Z,98.31
2022-09-15T03:24:33.798Z,98.76
2022-09-15T03:27:25.857Z,98.92
2022-09-15T03:29:58.124Z,99.37
2022-09-15T03:32:39.589Z,99.84
2022-09-15T03:35:14.635Z,99.95
2022-09-15T03:37:55.885Z,99.93
2022-09-15T03:40:30.914Z,100.00
2022-09-15T03:43:18.098Z,99.94
2022-09-15T03:46:00.984Z,100.00
2022-09-15T03:48:40.603Z,100.00
2022-09-15T03:51:15.282Z,100.00
2022-09-15T03:54:00.379Z,100.00
2022-09-15T03:56:35.205Z,100.00
2022-09-15T03:59:20.590Z,100.00
2022-09-15T04:01:55.496Z,100.00
2022-09-15T04:04:27.753Z,100.00
2022-09-15T04:07:11.130Z,100.00
2022-09-15T04:09:46.154Z,100.00
2022-09-15T04:12:21.529Z,100.00
2022-09-15T04:15:04.118Z,100.00
2022-09-15T04:17:40.443Z,100.00
2022-09-15T04:20:13.291Z,100.00
2022-09-15T04:23:07.109Z,100.00
2022-09-15T04:25:40.241Z,100.00
2022-09-15T04:28:15.099Z,100.00
2022-09-15T04:30:47.159Z,100.00
2022-09-15T04:33:19.528Z,100.00
2022-09-15T04:35:51.893Z,100.00
2022-09-15T04:38:33.462Z,100.00
2022-09-15T04:41:14.215Z,100.00
2022-09-15T04:43:49.741Z,100.00
2022-09-15T04:46:33.083Z,100.00
2022-09-15T04:49:26.120Z,100.00
2022-09-15T04:52:09.781Z,100.00
2022-09-15T04:54:42.526Z,100.00
2022-09-15T04:57:35.856Z,100.00
2022-09-15T05:00:10.090Z,100.00
2022-09-15T05:02:52.098Z,100.00
2022-09-15T05:05:37.967Z,100.00
2022-09-15T05:08:19.645Z,100.00
2022-09-15T05:11:03.885Z,100.00
2022-09-15T05:13:39.675Z,100.00
2022-09-15T05:16:24.633Z,100.00
2022-09-15T05:19:06.931Z,100.00
2022-09-15T05:21:39.627Z,100.00
2022-09-15T05:24:13.329Z,100.00
2022-09-15T05:26:45.719Z,100.00
2022-09-15T05:29:18.049Z,100.00
2022-09-15T05:31:53.205Z,100.00
2022-09-15T05:34:28.585Z,100.00
2022-09-15T05:37:21.013Z,100.00
2022-09-15T05:39:55.682Z,100.00
2022-09-15T05:42:37.991Z,100.00
2022-09-15T05:45:13.864Z,100.00
2022-09-15T05:47:49.110Z,100.00
2022-09-15T05:50:21.338Z,100.00
2022-09-15T05:53:14.126Z,100.00
2022-09-15T05:55:46.459Z,100.00
2022-09-15T05:58:18.509Z,100.00
2022-09-15T06:00:56.704Z,100.00
2022-09-15T06:03:39.208Z,100.00
2022-09-15T06:06:22.080Z,100.00
2022-09-15T06:08:59.133Z,100.00
2022-09-15T06:11:36.753Z,100.00
2022-09-15T06:14:15.427Z,100.00
2022-09-15T06:17:01.674Z,100.00
2022-09-15T06:19:37.483Z,100.00
2022-09-15T06:22:14.067Z,100.00
2022-09-15T06:25:07.088Z,100.00
2022-09-15T06:27:43.334Z,100.00
2022-09-15T06:30:26.608Z,100.00
2022-09-15T06:33:03.397Z,100.00
2022-09-15T06:35:35.593Z,100.00
2022-09-15T06:38:08.587Z,100.00
2022-09-15T06:40:41.032Z,100.00
2022-09-15T06:43:13.373Z,100.00
2022-09-15T06:45:54.756Z,100.00
2022-09-15T06:48:29.635Z,100.00
2022-09-15T06:51:06.509Z,100.00
2022-09-15T06:53:52.018Z,100.00
2022-09-15T06:56:38.176Z,100.00
2022-09-15T06:59:24.673Z,100.00
2022-09-15T07:02:12.102Z,100.00
2022-09-15T07:04:44.961Z,100.00
2022-09-15T07:07:21.073Z,100.00
2022-09-15T07:09:58.331Z,100.00
2022-09-15T07:12:39.874Z,100.00
2022-09-15T07:15:13.620Z,100.00
2022-09-15T07:17:48.951Z,100.00
2022-09-15T07:20:23.042Z,100.00
2022-09-15T07:22:55.880Z,100.00
2022-09-15T07:25:30.415Z,100.00
2022-09-15T07:28:05.794Z,100.00
2022-09-15T07:30:41.627Z,100.00
2022-09-15T07:33:17.748Z,100.00
2022-09-15T07:36:10.509Z,100.00
2022-09-15T07:38:54.146Z,100.00
2022-09-15T07:41:31.411Z,100.00
2022-09-15T07:44:04.200Z,100.00
2022-09-15T07:46:38.607Z,100.00
2022-09-15T07:49:12.816Z,99.93
2022-09-15T07:51:47.265Z,99.90
2022-09-15T07:54:22.916Z,99.67
2022-09-15T07:57:06.449Z,99.43
2022-09-15T07:59:41.226Z,99.66
2022-09-15T08:02:24.817Z,99.98
2022-09-15T08:05:07.996Z,100.00
2022-09-15T08:07:45.835Z,100.00
2022-09-15T08:10:39.126Z,100.00
2022-09-15T08:13:14.060Z,100.00
2022-09-15T08:16:08.163Z,100.00
2022-09-15T08:18:42.114Z,100.00
2022-09-15T08:21:25.902Z,100.00
2022-09-15T08:24:18.460Z,99.95
2022-09-15T08:26:52.964Z,99.90
2022-09-15T08:29:25.876Z,99.88
2022-09-15T08:32:01.287Z,99.90
2022-09-15T08:34:36.315Z,100.00
2022-09-15T08:37:19.405Z,99.82
2022-09-15T08:39:57.497Z,99.38
2022-09-15T08:42:36.500Z,99.13
2022-09-15T08:45:21.758Z,99.12
2022-09-15T08:48:16.667Z,99.58
2022-09-15T08:51:07.115Z,99.75
2022-09-15T08:53:45.717Z,99.68
2022-09-15T08:56:21.086Z,99.55
2022-09-15T08:58:53.423Z,99.36
2022-09-15T09:01:37.830Z,98.69
2022-09-15T09:04:33.904Z,98.55
2022-09-15T09:07:22.899Z,97.80
2022-09-15T09:10:01.686Z,97.50
2022-09-15T09:13:07.116Z,97.17
2022-09-15T09:15:55.441Z,96.44
2022-09-15T09:18:57.160Z,95.41
2022-09-15T09:21:44.220Z,94.54
2022-09-15T09:24:26.258Z,94.52
2022-09-15T09:27:04.571Z,94.96
2022-09-15T09:29:41.057Z,94.31
2022-09-15T09:32:22.342Z,94.39
2022-09-15T09:35:00.488Z,94.03
2022-09-15T09:37:36.387Z,93.70
2022-09-15T09:40:13.618Z,93.47
2022-09-15T09:42:46.581Z,93.21
2022-09-15T09:45:22.851Z,93.21
2022-09-15T09:48:03.409Z,93.16
2022-09-15T09:53:31.358Z,93.27
2022-09-15T09:56:26.799Z,92.37
2022-09-15T09:59:03.385Z,92.18
2022-09-15T10:01:35.714Z,92.11
2022-09-15T10:04:21.236Z,92.08
2022-09-15T10:06:58.406Z,92.01
2022-09-15T10:09:33.400Z,92.17
2022-09-15T10:12:08.291Z,92.21
2022-09-15T10:14:45.579Z,92.19
2022-09-15T10:17:39.711Z,91.42
2022-09-15T10:20:35.046Z,91.13
2022-09-15T10:23:25.028Z,90.51
2022-09-15T10:26:00.480Z,90.29
2022-09-15T10:28:33.130Z,89.70
2022-09-15T10:31:28.687Z,89.22
2022-09-15T10:34:21.218Z,88.35
2022-09-15T10:37:00.328Z,88.05
2022-09-15T10:39:39.592Z,87.51
2022-09-15T10:42:20.322Z,87.08
2022-09-15T10:45:04.355Z,86.98
2022-09-15T10:47:50.410Z,86.85
2022-09-15T10:50:32.232Z,87.38
2022-09-15T10:53:14.682Z,87.34
2022-09-15T10:55:59.918Z,87.01
2022-09-15T10:58:49.427Z,86.93
2022-09-15T11:01:36.343Z,87.21
2022-09-15T11:04:32.334Z,86.86
2022-09-15T11:07:13.148Z,86.91
2022-09-15T11:09:51.230Z,86.71
2022-09-15T11:16:04.585Z,87.70
2022-09-15T11:18:59.777Z,87.60
2022-09-15T11:21:40.841Z,87.05
2022-09-15T11:24:27.391Z,86.85
2022-09-15T11:27:17.701Z,86.67
2022-09-15T11:30:03.999Z,86.00
2022-09-15T11:32:45.015Z,84.83
2022-09-15T11:35:35.597Z,84.51
2022-09-15T11:38:36.727Z,84.69
2022-09-15T11:41:21.031Z,84.61
2022-09-15T11:44:16.819Z,84.64
2022-09-15T11:47:04.243Z,84.48
2022-09-15T11:49:41.757Z,83.88
2022-09-15T11:52:26.090Z,83.85
2022-09-15T11:55:06.515Z,83.59
2022-09-15T11:57:46.925Z,83.91
2022-09-15T12:00:23.221Z,84.05
2022-09-15T12:03:11.559Z,84.12
2022-09-15T12:05:49.298Z,84.36
2022-09-15T12:08:28.764Z,84.06
2022-09-15T12:11:14.180Z,83.98
2022-09-15T12:13:47.973Z,84.10
2022-09-15T12:16:20.929Z,84.00
2022-09-15T12:18:56.448Z,84.52
2022-09-15T12:21:38.848Z,84.35
2022-09-15T12:24:18.296Z,84.27
2022-09-15T12:26:50.940Z,84.51
2022-09-15T12:29:42.211Z,84.46
2022-09-15T12:32:24.752Z,84.45
2022-09-15T12:35:33.301Z,84.26
2022-09-15T12:38:15.651Z,84.19
2022-09-15T12:40:57.531Z,84.38
2022-09-15T12:43:31.820Z,83.75
2022-09-15T12:46:07.748Z,83.74
2022-09-15T12:48:46.800Z,83.72
2022-09-15T12:51:28.120Z,84.09
2022-09-15T12:54:23.086Z,84.34
2022-09-15T12:56:57.188Z,84.36
2022-09-15T12:59:30.517Z,84.37
2022-09-15T13:02:02.869Z,84.18
2022-09-15T13:04:54.894Z,84.15
2022-09-15T13:07:55.585Z,84.41
2022-09-15T13:10:39.522Z,84.37
2022-09-15T13:13:39.992Z,84.54
2022-09-15T13:16:19.560Z,84.89
2022-09-15T13:19:04.156Z,84.75
2022-09-15T13:21:39.208Z,84.83
2022-09-15T13:24:25.348Z,84.72
2022-09-15T13:27:00.432Z,84.49
2022-09-15T13:29:33.942Z,83.94
2022-09-15T13:32:28.130Z,84.27
2022-09-15T13:35:28.175Z,84.62
2022-09-15T13:38:27.639Z,84.74
2022-09-15T13:41:43.053Z,84.74
2022-09-15T13:45:03.405Z,84.72
2022-09-15T13:47:46.445Z,84.66
2022-09-15T13:50:24.884Z,84.70
2022-09-15T13:53:17.562Z,84.79
2022-09-15T13:55:55.889Z,84.61
2022-09-15T14:01:38.915Z,85.32
2022-09-15T14:04:18.685Z,85.44
2022-09-15T14:07:01.741Z,85.78
2022-09-15T14:09:38.688Z,86.02
2022-09-15T14:12:15.127Z,85.75
2022-09-15T14:14:53.763Z,85.83
2022-09-15T14:17:31.172Z,86.17
2022-09-15T14:20:23.967Z,86.25
2022-09-15T14:23:15.868Z,86.55
2022-09-15T14:25:50.117Z,86.91
2022-09-15T14:28:33.633Z,86.91
2022-09-15T14:31:08.791Z,86.44
2022-09-15T14:33:51.536Z,86.30
2022-09-15T14:36:29.718Z,86.83
2022-09-15T14:39:23.708Z,87.03
2022-09-15T14:47:38.117Z,86.78
2022-09-15T14:50:14.328Z,86.40
2022-09-15T14:52:48.644Z,86.47
2022-09-15T14:55:36.939Z,86.47
2022-09-15T14:58:21.868Z,86.15
2022-09-15T15:01:01.578Z,85.87
2022-09-15T15:03:40.474Z,85.56
2022-09-15T15:06:29.147Z,85.10
2022-09-15T15:09:06.937Z,85.08
2022-09-15T15:11:42.911Z,84.59
2022-09-15T15:14:24.678Z,84.25
2022-09-15T15:17:02.230Z,83.89
2022-09-15T15:19:38.332Z,83.92
2022-09-15T15:22:20.485Z,84.09
2022-09-15T15:24:54.519Z,84.38
2022-09-15T15:27:42.998Z,84.07
2022-09-15T15:30:44.711Z,83.86
2022-09-15T15:33:28.533Z,83.90
2022-09-15T15:36:11.939Z,83.71
2022-09-15T15:38:52.427Z,83.83
2022-09-15T15:41:27.275Z,83.66
2022-09-15T15:44:08.997Z,83.95
2022-09-15T15:46:53.558Z,83.72
2022-09-15T15:49:29.294Z,83.66
2022-09-15T15:52:09.918Z,83.65
2022-09-15T15:54:42.306Z,83.84
2022-09-15T15:57:27.214Z,83.84
2022-09-15T16:00:01.862Z,83.61
2022-09-15T16:02:36.350Z,83.70
2022-09-15T16:05:20.730Z,83.70
2022-09-15T16:07:58.630Z,83.59
2022-09-15T16:10:42.987Z,83.55
2022-09-15T16:13:20.620Z,83.76
2022-09-15T16:16:16.084Z,83.78
2022-09-15T16:18:48.935Z,84.03
2022-09-15T16:21:29.313Z,84.33
2022-09-15T16:24:01.681Z,84.74
2022-09-15T16:26:35.695Z,84.82
2022-09-15T16:29:08.363Z,84.76
2022-09-15T16:31:40.693Z,85.16
2022-09-15T16:34:17.748Z,85.35
2022-09-15T16:36:50.159Z,85.98
2022-09-15T16:39:22.333Z,86.10
2022-09-15T16:42:04.764Z,86.37
2022-09-15T16:44:37.110Z,86.63
2022-09-15T16:47:17.094Z,86.86
2022-09-15T16:50:03.597Z,87.07
2022-09-15T16:52:35.845Z,87.31
2022-09-15T16:55:23.481Z,87.59
2022-09-15T16:58:00.024Z,87.89
2022-09-15T17:00:38.038Z,88.22
2022-09-15T17:03:16.569Z,88.64
2022-09-15T17:05:51.039Z,88.73
2022-09-15T17:08:38.253Z,89.12
2022-09-15T17:11:17.201Z,89.20
2022-09-15T17:13:53.625Z,89.33
2022-09-15T17:16:26.326Z,89.58
2022-09-15T17:18:58.543Z,89.72
2022-09-15T17:21:53.077Z,89.74
2022-09-15T17:24:25.352Z,90.02
2022-09-15T17:26:57.701Z,90.18
2022-09-15T17:29:30.159Z,90.45
2022-09-15T17:32:02.552Z,90.45
2022-09-15T17:34:34.897Z,90.47
2022-09-15T17:37:07.197Z,90.78
2022-09-15T17:39:39.662Z,90.94
2022-09-15T17:42:12.826Z,90.91
2022-09-15T17:44:45.156Z,90.67
2022-09-15T17:47:17.683Z,90.95
2022-09-15T17:49:50.039Z,90.88
2022-09-15T17:52:24.408Z,90.83
2022-09-15T17:55:19.652Z,90.79
2022-09-15T17:57:56.699Z,90.96
2022-09-15T18:00:31.297Z,90.63
2022-09-15T18:03:15.848Z,90.82
2022-09-15T18:05:48.476Z,90.62
2022-09-15T18:08:20.924Z,90.71
2022-09-15T18:10:55.169Z,90.60
2022-09-15T18:13:30.139Z,90.65
2022-09-15T18:16:11.867Z,90.55
2022-09-15T18:18:44.792Z,90.47
2022-09-15T18:21:28.922Z,90.80
2022-09-15T18:24:01.994Z,90.70
2022-09-15T18:26:34.325Z,90.91
2022-09-15T18:29:16.271Z,90.59
2022-09-15T18:31:51.269Z,90.71
2022-09-15T18:34:31.659Z,90.63
2022-09-15T18:37:12.230Z,90.87
2022-09-15T18:39:45.291Z,90.96
2022-09-15T18:42:29.901Z,90.78
2022-09-15T18:45:10.796Z,90.90
2022-09-15T18:47:54.449Z,90.89
2022-09-15T18:50:27.430Z,90.72
2022-09-15T18:53:20.382Z,90.73
2022-09-15T18:56:12.466Z,90.79
2022-09-15T18:58:45.726Z,90.76
2022-09-15T19:01:29.936Z,90.59
2022-09-15T19:04:02.922Z,90.88
2022-09-15T19:06:55.773Z,91.01
2022-09-15T19:09:56.375Z,91.03
2022-09-15T19:12:29.772Z,90.94
2022-09-15T19:15:12.657Z,91.09
2022-09-15T19:17:48.803Z,90.83
2022-09-15T19:20:27.043Z,91.00
2022-09-15T19:23:02.787Z,91.19
2022-09-15T19:25:41.807Z,91.17
2022-09-15T19:28:20.447Z,90.82
2022-09-15T19:30:53.709Z,90.97
2022-09-15T19:33:35.464Z,91.23
2022-09-15T19:36:27.920Z,91.41
2022-09-15T19:39:04.967Z,91.40
2022-09-15T19:41:40.952Z,91.43
2022-09-15T19:44:33.899Z,91.42
2022-09-15T19:47:09.287Z,91.47
2022-09-15T19:49:44.490Z,91.59
2022-09-15T19:52:28.535Z,91.52
2022-09-15T19:55:00.971Z,91.40
2022-09-15T19:57:38.496Z,91.46
2022-09-15T20:00:16.138Z,91.50
2022-09-15T20:02:54.350Z,91.32
2022-09-15T20:05:36.960Z,91.61
2022-09-15T20:08:12.076Z,91.32
2022-09-15T20:10:55.341Z,91.27
2022-09-15T20:13:32.102Z,91.06
2022-09-15T20:16:09.708Z,91.06
2022-09-15T20:19:04.536Z,91.08
2022-09-15T20:21:54.253Z,91.05
2022-09-15T20:24:38.482Z,91.23
2022-09-15T20:27:15.035Z,91.35
2022-09-15T20:29:49.975Z,91.18
2022-09-15T20:32:35.048Z,91.34
2022-09-15T20:35:08.701Z,91.49
2022-09-15T20:37:41.954Z,91.32
2022-09-15T20:40:35.385Z,91.38
2022-09-15T20:43:18.941Z,91.48
2022-09-15T20:46:00.134Z,91.38
2022-09-15T20:48:39.347Z,91.39
2022-09-15T20:51:16.983Z,91.46
2022-09-15T20:53:51.633Z,91.66
2022-09-15T20:56:30.860Z,91.36
2022-09-15T20:59:10.876Z,91.14
2022-09-15T21:01:46.907Z,91.08
2022-09-15T21:04:32.920Z,91.14
2022-09-15T21:07:25.461Z,91.02
2022-09-15T21:10:01.095Z,90.91
2022-09-15T21:12:34.216Z,90.58
2022-09-15T21:15:29.858Z,90.26
2022-09-15T21:18:11.600Z,89.86
2022-09-15T21:21:06.189Z,89.76
2022-09-15T21:23:50.745Z,89.70
2022-09-15T21:26:31.153Z,89.64
2022-09-15T21:29:13.477Z,89.29
2022-09-15T21:31:45.866Z,89.22
2022-09-15T21:34:38.212Z,89.10
2022-09-15T21:37:15.079Z,88.89
2022-09-15T21:39:50.449Z,88.70
2022-09-15T21:42:39.596Z,88.52
2022-09-15T21:45:21.726Z,88.63
2022-09-15T21:48:07.482Z,88.87
2022-09-15T21:50:52.397Z,88.71
2022-09-15T21:53:25.155Z,88.69
2022-09-15T21:56:03.279Z,88.67
2022-09-15T21:58:42.830Z,88.66
2022-09-15T22:01:20.685Z,88.59
2022-09-15T22:03:57.133Z,88.48
2022-09-15T22:06:43.296Z,88.64
2022-09-15T22:09:24.704Z,88.69
2022-09-15T22:11:57.172Z,88.65
2022-09-15T22:14:40.454Z,88.51
2022-09-15T22:17:21.693Z,88.44
2022-09-15T22:19:53.875Z,88.49
2022-09-15T22:22:30.117Z,88.32
2022-09-15T22:25:05.126Z,88.17
2022-09-15T22:27:37.786Z,88.60
2022-09-15T22:30:12.749Z,88.72
2022-09-15T22:32:44.932Z,88.59
2022-09-15T22:35:29.985Z,88.71
2022-09-15T22:38:05.317Z,88.88
2022-09-15T22:40:45.077Z,88.72
2022-09-15T22:43:31.539Z,88.84
2022-09-15T22:46:14.001Z,88.47
2022-09-15T22:49:06.571Z,88.30
2022-09-15T22:51:41.284Z,88.51
2022-09-15T22:54:20.979Z,88.43
2022-09-15T22:57:13.287Z,88.41
2022-09-15T22:59:56.890Z,88.43
2022-09-15T23:02:49.753Z,88.09
2022-09-15T23:05:33.006Z,87.97
2022-09-15T23:08:18.041Z,87.97
2022-09-15T23:10:50.231Z,87.97
2022-09-15T23:13:25.764Z,87.96
2022-09-15T23:16:09.819Z,88.02
2022-09-15T23:19:02.606Z,87.88
2022-09-15T23:21:43.667Z,87.86
2022-09-15T23:24:18.890Z,87.75
2022-09-15T23:27:04.606Z,87.86
2022-09-15T23:29:39.322Z,87.58
2022-09-15T23:32:11.718Z,87.50
2022-09-15T23:34:50.005Z,87.45
2022-09-15T23:37:24.585Z,87.25
2022-09-15T23:39:59.376Z,87.08
2022-09-15T23:42:38.797Z,87.06
2022-09-15T23:45:31.461Z,87.02
2022-09-15T23:48:09.132Z,87.14
2022-09-15T23:50:48.507Z,87.01
2022-09-15T23:53:24.163Z,86.92
2022-09-15T23:56:16.877Z,86.89
2022-09-15T23:58:52.504Z,86.93
